sensor_id;sensor_type;location;lat;lon;timestamp;temperature;humidity
26909;DHT22;14477;51.038;4.588;2023-04-03T00:01:18;4.80;99.90
26909;DHT22;14477;51.038;4.588;2023-04-03T00:03:44;4.80;99.90
26909;DHT22;14477;51.038;4.588;2023-04-03T00:06:11;4.80;99.90
26909;DHT22;14477;51.038;4.588;2023-04-03T00:08:37;4.80;99.90
26909;DHT22;14477;51.038;4.588;2023-04-03T00:11:03;4.70;99.90
26909;DHT22;14477;51.038;4.588;2023-04-03T00:13:29;4.70;99.90
26909;DHT22;14477;51.038;4.588;2023-04-03T00:15:55;4.70;99.90
26909;DHT22;14477;51.038;4.588;2023-04-03T00:18:21;4.70;99.90
26909;DHT22;14477;51.038;4.588;2023-04-03T00:20:47;4.70;99.90
26909;DHT22;14477;51.038;4.588;2023-04-03T00:23:13;4.70;99.90
26909;DHT22;14477;51.038;4.588;2023-04-03T00:25:39;4.60;99.90
26909;DHT22;14477;51.038;4.588;2023-04-03T00:28:05;4.70;99.90
26909;DHT22;14477;51.038;4.588;2023-04-03T00:30:31;4.70;99.90
26909;DHT22;14477;51.038;4.588;2023-04-03T00:32:57;4.60;99.90
26909;DHT22;14477;51.038;4.588;2023-04-03T00:35:24;4.60;99.90
26909;DHT22;14477;51.038;4.588;2023-04-03T00:37:54;4.60;99.90
26909;DHT22;14477;51.038;4.588;2023-04-03T00:40:22;4.60;99.90
26909;DHT22;14477;51.038;4.588;2023-04-03T00:42:49;4.60;99.90
26909;DHT22;14477;51.038;4.588;2023-04-03T00:47:45;4.60;99.90
26909;DHT22;14477;51.038;4.588;2023-04-03T00:50:11;4.60;99.90
26909;DHT22;14477;51.038;4.588;2023-04-03T00:52:37;4.50;99.90
26909;DHT22;14477;51.038;4.588;2023-04-03T00:55:08;4.60;99.90
26909;DHT22;14477;51.038;4.588;2023-04-03T00:57:34;4.60;99.90
26909;DHT22;14477;51.038;4.588;2023-04-03T01:00:09;4.50;99.90
26909;DHT22;14477;51.038;4.588;2023-04-03T01:02:37;4.50;99.90
26909;DHT22;14477;51.038;4.588;2023-04-03T01:05:04;4.50;99.90
26909;DHT22;14477;51.038;4.588;2023-04-03T01:07:31;4.50;99.90
26909;DHT22;14477;51.038;4.588;2023-04-03T01:10:01;4.50;99.90
26909;DHT22;14477;51.038;4.588;2023-04-03T01:12:36;4.40;99.90
26909;DHT22;14477;51.038;4.588;2023-04-03T01:15:11;4.50;99.90
26909;DHT22;14477;51.038;4.588;2023-04-03T01:17:42;4.40;99.90
26909;DHT22;14477;51.038;4.588;2023-04-03T01:20:31;4.40;99.90
26909;DHT22;14477;51.038;4.588;2023-04-03T01:28:10;4.40;99.90
26909;DHT22;14477;51.038;4.588;2023-04-03T01:31:02;4.30;99.90
26909;DHT22;14477;51.038;4.588;2023-04-03T01:33:31;4.30;99.90
26909;DHT22;14477;51.038;4.588;2023-04-03T01:35:57;4.30;99.90
26909;DHT22;14477;51.038;4.588;2023-04-03T01:38:23;4.20;99.90
26909;DHT22;14477;51.038;4.588;2023-04-03T01:40:49;4.20;99.90
26909;DHT22;14477;51.038;4.588;2023-04-03T01:43:14;4.20;99.90
26909;DHT22;14477;51.038;4.588;2023-04-03T01:45:40;4.20;99.90
26909;DHT22;14477;51.038;4.588;2023-04-03T01:48:06;4.20;99.90
26909;DHT22;14477;51.038;4.588;2023-04-03T01:50:31;4.20;99.90
26909;DHT22;14477;51.038;4.588;2023-04-03T01:52:57;4.10;99.90
26909;DHT22;14477;51.038;4.588;2023-04-03T01:55:23;4.10;99.90
26909;DHT22;14477;51.038;4.588;2023-04-03T01:57:48;4.10;99.90
26909;DHT22;14477;51.038;4.588;2023-04-03T02:00:14;4.10;99.90
26909;DHT22;14477;51.038;4.588;2023-04-03T02:02:40;4.00;99.90
26909;DHT22;14477;51.038;4.588;2023-04-03T02:05:06;4.00;99.90
26909;DHT22;14477;51.038;4.588;2023-04-03T02:07:32;4.00;99.90
26909;DHT22;14477;51.038;4.588;2023-04-03T02:09:58;4.00;99.90
26909;DHT22;14477;51.038;4.588;2023-04-03T02:12:23;4.00;99.90
26909;DHT22;14477;51.038;4.588;2023-04-03T02:14:49;4.00;99.90
26909;DHT22;14477;51.038;4.588;2023-04-03T02:17:15;3.90;99.90
26909;DHT22;14477;51.038;4.588;2023-04-03T02:19:41;3.90;99.90
26909;DHT22;14477;51.038;4.588;2023-04-03T02:22:06;3.90;99.90
26909;DHT22;14477;51.038;4.588;2023-04-03T02:24:32;3.90;99.90
26909;DHT22;14477;51.038;4.588;2023-04-03T02:26:58;3.80;99.90
26909;DHT22;14477;51.038;4.588;2023-04-03T02:29:24;3.80;99.90
26909;DHT22;14477;51.038;4.588;2023-04-03T02:31:50;3.80;99.90
26909;DHT22;14477;51.038;4.588;2023-04-03T02:34:16;3.80;99.90
26909;DHT22;14477;51.038;4.588;2023-04-03T02:36:42;3.80;99.90
26909;DHT22;14477;51.038;4.588;2023-04-03T02:39:07;3.80;99.90
26909;DHT22;14477;51.038;4.588;2023-04-03T02:41:33;3.80;99.90
26909;DHT22;14477;51.038;4.588;2023-04-03T02:44:05;3.80;99.90
26909;DHT22;14477;51.038;4.588;2023-04-03T02:46:31;3.70;99.90
26909;DHT22;14477;51.038;4.588;2023-04-03T02:48:57;3.70;99.90
26909;DHT22;14477;51.038;4.588;2023-04-03T02:51:23;3.70;99.90
26909;DHT22;14477;51.038;4.588;2023-04-03T02:53:49;3.70;99.90
26909;DHT22;14477;51.038;4.588;2023-04-03T02:56:16;3.70;99.90
26909;DHT22;14477;51.038;4.588;2023-04-03T02:58:43;3.70;99.90
26909;DHT22;14477;51.038;4.588;2023-04-03T03:01:10;3.70;99.90
26909;DHT22;14477;51.038;4.588;2023-04-03T03:03:35;3.70;99.90
26909;DHT22;14477;51.038;4.588;2023-04-03T03:08:32;3.60;99.90
26909;DHT22;14477;51.038;4.588;2023-04-03T03:10:58;3.60;99.90
26909;DHT22;14477;51.038;4.588;2023-04-03T03:13:24;3.60;99.90
26909;DHT22;14477;51.038;4.588;2023-04-03T03:15:49;3.60;99.90
26909;DHT22;14477;51.038;4.588;2023-04-03T03:18:16;3.50;99.90
26909;DHT22;14477;51.038;4.588;2023-04-03T03:20:42;3.50;99.90
26909;DHT22;14477;51.038;4.588;2023-04-03T03:23:08;3.50;99.90
26909;DHT22;14477;51.038;4.588;2023-04-03T03:25:37;3.50;99.90
26909;DHT22;14477;51.038;4.588;2023-04-03T03:28:03;3.50;99.90
26909;DHT22;14477;51.038;4.588;2023-04-03T03:30:28;3.50;99.90
26909;DHT22;14477;51.038;4.588;2023-04-03T03:32:54;3.50;99.90
26909;DHT22;14477;51.038;4.588;2023-04-03T03:35:20;3.50;99.90
26909;DHT22;14477;51.038;4.588;2023-04-03T03:37:45;3.40;99.90
26909;DHT22;14477;51.038;4.588;2023-04-03T03:40:11;3.40;99.90
26909;DHT22;14477;51.038;4.588;2023-04-03T03:42:38;3.40;99.90
26909;DHT22;14477;51.038;4.588;2023-04-03T03:45:05;3.40;99.90
26909;DHT22;14477;51.038;4.588;2023-04-03T03:47:31;3.40;99.90
26909;DHT22;14477;51.038;4.588;2023-04-03T03:49:56;3.40;99.90
26909;DHT22;14477;51.038;4.588;2023-04-03T03:52:22;3.40;99.90
26909;DHT22;14477;51.038;4.588;2023-04-03T03:54:48;3.30;99.90
26909;DHT22;14477;51.038;4.588;2023-04-03T03:57:13;3.30;99.90
26909;DHT22;14477;51.038;4.588;2023-04-03T03:59:39;3.30;99.90
26909;DHT22;14477;51.038;4.588;2023-04-03T04:02:07;3.40;99.90
26909;DHT22;14477;51.038;4.588;2023-04-03T04:04:33;3.30;99.90
26909;DHT22;14477;51.038;4.588;2023-04-03T04:06:58;3.30;99.90
26909;DHT22;14477;51.038;4.588;2023-04-03T04:09:26;3.30;99.90
26909;DHT22;14477;51.038;4.588;2023-04-03T04:11:52;3.30;99.90
26909;DHT22;14477;51.038;4.588;2023-04-03T04:14:18;3.30;99.90
26909;DHT22;14477;51.038;4.588;2023-04-03T04:16:46;3.20;99.90
26909;DHT22;14477;51.038;4.588;2023-04-03T04:19:12;3.20;99.90
26909;DHT22;14477;51.038;4.588;2023-04-03T04:21:37;3.20;99.90
26909;DHT22;14477;51.038;4.588;2023-04-03T04:24:03;3.20;99.90
26909;DHT22;14477;51.038;4.588;2023-04-03T04:26:29;3.20;99.90
26909;DHT22;14477;51.038;4.588;2023-04-03T04:28:55;3.20;99.90
26909;DHT22;14477;51.038;4.588;2023-04-03T04:31:20;3.20;99.90
26909;DHT22;14477;51.038;4.588;2023-04-03T04:33:46;3.20;99.90
26909;DHT22;14477;51.038;4.588;2023-04-03T04:36:12;3.10;99.90
26909;DHT22;14477;51.038;4.588;2023-04-03T04:38:37;3.20;99.90
26909;DHT22;14477;51.038;4.588;2023-04-03T04:41:04;3.10;99.90
26909;DHT22;14477;51.038;4.588;2023-04-03T04:43:29;3.10;99.90
26909;DHT22;14477;51.038;4.588;2023-04-03T04:46:03;3.10;99.90
26909;DHT22;14477;51.038;4.588;2023-04-03T04:48:30;3.10;99.90
26909;DHT22;14477;51.038;4.588;2023-04-03T04:50:55;3.10;99.90
26909;DHT22;14477;51.038;4.588;2023-04-03T04:53:21;3.10;99.90
26909;DHT22;14477;51.038;4.588;2023-04-03T04:55:47;3.10;99.90
26909;DHT22;14477;51.038;4.588;2023-04-03T04:58:13;3.00;99.90
26909;DHT22;14477;51.038;4.588;2023-04-03T05:00:38;3.00;99.90
26909;DHT22;14477;51.038;4.588;2023-04-03T05:03:04;3.00;99.90
26909;DHT22;14477;51.038;4.588;2023-04-03T05:05:30;3.00;99.90
26909;DHT22;14477;51.038;4.588;2023-04-03T05:07:56;3.00;99.90
26909;DHT22;14477;51.038;4.588;2023-04-03T05:10:21;2.90;99.90
26909;DHT22;14477;51.038;4.588;2023-04-03T05:12:47;3.00;99.90
26909;DHT22;14477;51.038;4.588;2023-04-03T05:15:13;2.90;99.90
26909;DHT22;14477;51.038;4.588;2023-04-03T05:17:38;2.90;99.90
26909;DHT22;14477;51.038;4.588;2023-04-03T05:20:05;2.90;99.90
26909;DHT22;14477;51.038;4.588;2023-04-03T05:22:31;2.90;99.90
26909;DHT22;14477;51.038;4.588;2023-04-03T05:24:56;2.90;99.90
26909;DHT22;14477;51.038;4.588;2023-04-03T05:27:22;2.90;99.90
26909;DHT22;14477;51.038;4.588;2023-04-03T05:29:50;2.90;99.90
26909;DHT22;14477;51.038;4.588;2023-04-03T05:32:16;2.90;99.90
26909;DHT22;14477;51.038;4.588;2023-04-03T05:34:42;2.90;99.90
26909;DHT22;14477;51.038;4.588;2023-04-03T05:37:07;2.90;99.90
26909;DHT22;14477;51.038;4.588;2023-04-03T05:39:33;2.90;99.90
26909;DHT22;14477;51.038;4.588;2023-04-03T05:41:59;2.90;99.90
26909;DHT22;14477;51.038;4.588;2023-04-03T05:44:25;2.90;99.90
26909;DHT22;14477;51.038;4.588;2023-04-03T05:46:51;2.90;99.90
26909;DHT22;14477;51.038;4.588;2023-04-03T05:49:16;2.90;99.90
26909;DHT22;14477;51.038;4.588;2023-04-03T05:51:43;2.90;99.90
26909;DHT22;14477;51.038;4.588;2023-04-03T05:54:17;3.00;99.90
26909;DHT22;14477;51.038;4.588;2023-04-03T05:56:44;3.00;99.90
26909;DHT22;14477;51.038;4.588;2023-04-03T05:59:10;3.00;99.90
26909;DHT22;14477;51.038;4.588;2023-04-03T06:01:36;3.00;99.90
26909;DHT22;14477;51.038;4.588;2023-04-03T06:04:02;3.10;99.90
26909;DHT22;14477;51.038;4.588;2023-04-03T06:06:48;3.00;99.90
26909;DHT22;14477;51.038;4.588;2023-04-03T06:09:15;3.10;99.90
26909;DHT22;14477;51.038;4.588;2023-04-03T06:11:42;3.10;99.90
26909;DHT22;14477;51.038;4.588;2023-04-03T06:14:08;3.20;99.90
26909;DHT22;14477;51.038;4.588;2023-04-03T06:16:34;3.20;99.90
26909;DHT22;14477;51.038;4.588;2023-04-03T06:19:00;3.20;99.90
26909;DHT22;14477;51.038;4.588;2023-04-03T06:21:26;3.30;99.90
26909;DHT22;14477;51.038;4.588;2023-04-03T06:23:52;3.30;99.90
26909;DHT22;14477;51.038;4.588;2023-04-03T06:26:18;3.40;99.90
26909;DHT22;14477;51.038;4.588;2023-04-03T06:28:43;3.50;99.90
26909;DHT22;14477;51.038;4.588;2023-04-03T06:31:09;3.50;99.90
26909;DHT22;14477;51.038;4.588;2023-04-03T06:33:35;3.60;99.90
26909;DHT22;14477;51.038;4.588;2023-04-03T06:36:04;3.60;99.90
26909;DHT22;14477;51.038;4.588;2023-04-03T06:38:30;3.70;99.90
26909;DHT22;14477;51.038;4.588;2023-04-03T06:40:55;3.80;99.90
26909;DHT22;14477;51.038;4.588;2023-04-03T06:43:22;3.90;99.90
26909;DHT22;14477;51.038;4.588;2023-04-03T06:45:48;4.10;99.90
26909;DHT22;14477;51.038;4.588;2023-04-03T06:48:14;4.30;99.90
26909;DHT22;14477;51.038;4.588;2023-04-03T06:50:39;4.70;99.90
26909;DHT22;14477;51.038;4.588;2023-04-03T06:53:05;5.00;99.90
26909;DHT22;14477;51.038;4.588;2023-04-03T06:55:32;5.40;99.90
26909;DHT22;14477;51.038;4.588;2023-04-03T06:57:58;5.80;99.90
26909;DHT22;14477;51.038;4.588;2023-04-03T07:00:23;6.30;99.90
26909;DHT22;14477;51.038;4.588;2023-04-03T07:02:50;6.70;99.90
26909;DHT22;14477;51.038;4.588;2023-04-03T07:05:17;7.10;99.90
26909;DHT22;14477;51.038;4.588;2023-04-03T07:07:42;7.50;99.90
26909;DHT22;14477;51.038;4.588;2023-04-03T07:10:09;7.80;99.90
26909;DHT22;14477;51.038;4.588;2023-04-03T07:12:35;8.10;99.90
26909;DHT22;14477;51.038;4.588;2023-04-03T07:15:01;8.40;99.90
26909;DHT22;14477;51.038;4.588;2023-04-03T07:17:26;8.60;99.90
26909;DHT22;14477;51.038;4.588;2023-04-03T07:19:52;8.90;99.90
26909;DHT22;14477;51.038;4.588;2023-04-03T07:22:18;9.20;99.90
26909;DHT22;14477;51.038;4.588;2023-04-03T07:24:44;9.50;99.90
26909;DHT22;14477;51.038;4.588;2023-04-03T07:27:10;9.90;99.90
26909;DHT22;14477;51.038;4.588;2023-04-03T07:29:38;10.30;99.90
26909;DHT22;14477;51.038;4.588;2023-04-03T07:32:04;10.60;99.90
26909;DHT22;14477;51.038;4.588;2023-04-03T07:34:31;11.00;99.90
26909;DHT22;14477;51.038;4.588;2023-04-03T07:36:58;11.50;99.90
26909;DHT22;14477;51.038;4.588;2023-04-03T07:39:24;11.90;99.90
26909;DHT22;14477;51.038;4.588;2023-04-03T07:41:50;12.40;99.90
26909;DHT22;14477;51.038;4.588;2023-04-03T07:44:17;12.80;99.90
26909;DHT22;14477;51.038;4.588;2023-04-03T07:46:43;13.10;99.90
26909;DHT22;14477;51.038;4.588;2023-04-03T07:49:09;13.50;99.90
26909;DHT22;14477;51.038;4.588;2023-04-03T07:51:35;13.80;99.90
26909;DHT22;14477;51.038;4.588;2023-04-03T07:54:00;14.10;99.90
26909;DHT22;14477;51.038;4.588;2023-04-03T07:56:26;14.30;99.90
26909;DHT22;14477;51.038;4.588;2023-04-03T07:58:53;14.50;99.90
26909;DHT22;14477;51.038;4.588;2023-04-03T08:01:19;14.80;99.90
26909;DHT22;14477;51.038;4.588;2023-04-03T08:03:44;15.00;99.90
26909;DHT22;14477;51.038;4.588;2023-04-03T08:06:10;15.20;99.90
26909;DHT22;14477;51.038;4.588;2023-04-03T08:08:36;15.50;99.90
26909;DHT22;14477;51.038;4.588;2023-04-03T08:11:02;15.70;99.90
26909;DHT22;14477;51.038;4.588;2023-04-03T08:13:29;15.80;99.90
26909;DHT22;14477;51.038;4.588;2023-04-03T08:15:55;16.00;99.90
26909;DHT22;14477;51.038;4.588;2023-04-03T08:18:23;16.30;99.90
26909;DHT22;14477;51.038;4.588;2023-04-03T08:20:51;16.50;99.90
26909;DHT22;14477;51.038;4.588;2023-04-03T08:23:18;16.70;99.90
26909;DHT22;14477;51.038;4.588;2023-04-03T08:25:44;16.90;99.90
26909;DHT22;14477;51.038;4.588;2023-04-03T08:28:10;17.10;99.90
26909;DHT22;14477;51.038;4.588;2023-04-03T08:30:39;17.30;99.90
26909;DHT22;14477;51.038;4.588;2023-04-03T08:33:05;17.40;99.90
26909;DHT22;14477;51.038;4.588;2023-04-03T08:35:31;17.50;99.90
26909;DHT22;14477;51.038;4.588;2023-04-03T08:37:57;17.70;99.90
26909;DHT22;14477;51.038;4.588;2023-04-03T08:40:23;17.90;99.90
26909;DHT22;14477;51.038;4.588;2023-04-03T08:42:56;18.10;99.90
26909;DHT22;14477;51.038;4.588;2023-04-03T08:45:45;18.20;99.90
26909;DHT22;14477;51.038;4.588;2023-04-03T08:48:38;18.40;99.90
26909;DHT22;14477;51.038;4.588;2023-04-03T08:51:08;18.60;99.90
26909;DHT22;14477;51.038;4.588;2023-04-03T08:53:41;18.80;99.90
26909;DHT22;14477;51.038;4.588;2023-04-03T08:56:09;19.00;99.90
26909;DHT22;14477;51.038;4.588;2023-04-03T08:58:56;19.20;99.90
26909;DHT22;14477;51.038;4.588;2023-04-03T09:01:27;19.50;99.90
26909;DHT22;14477;51.038;4.588;2023-04-03T09:03:54;19.70;99.90
26909;DHT22;14477;51.038;4.588;2023-04-03T09:06:29;19.90;99.90
26909;DHT22;14477;51.038;4.588;2023-04-03T09:18:05;20.70;99.90
26909;DHT22;14477;51.038;4.588;2023-04-03T09:26:28;21.10;99.90
26909;DHT22;14477;51.038;4.588;2023-04-03T09:28:58;21.20;99.90
26909;DHT22;14477;51.038;4.588;2023-04-03T09:31:46;21.20;99.90
26909;DHT22;14477;51.038;4.588;2023-04-03T09:34:30;21.20;99.60
26909;DHT22;14477;51.038;4.588;2023-04-03T09:37:02;21.30;99.90
26909;DHT22;14477;51.038;4.588;2023-04-03T09:39:32;21.30;99.90
26909;DHT22;14477;51.038;4.588;2023-04-03T09:42:02;21.30;99.90
26909;DHT22;14477;51.038;4.588;2023-04-03T09:44:36;21.30;99.90
26909;DHT22;14477;51.038;4.588;2023-04-03T09:47:25;21.30;99.90
26909;DHT22;14477;51.038;4.588;2023-04-03T09:49:56;21.30;99.90
26909;DHT22;14477;51.038;4.588;2023-04-03T09:52:35;21.30;99.90
26909;DHT22;14477;51.038;4.588;2023-04-03T09:55:07;21.30;99.90
26909;DHT22;14477;51.038;4.588;2023-04-03T09:57:33;21.30;99.90
26909;DHT22;14477;51.038;4.588;2023-04-03T10:00:00;21.30;99.90
26909;DHT22;14477;51.038;4.588;2023-04-03T10:02:37;21.30;99.90
26909;DHT22;14477;51.038;4.588;2023-04-03T10:08:09;21.40;99.90
26909;DHT22;14477;51.038;4.588;2023-04-03T10:10:36;21.40;99.90
26909;DHT22;14477;51.038;4.588;2023-04-03T10:13:13;21.50;99.90
26909;DHT22;14477;51.038;4.588;2023-04-03T10:15:43;21.40;99.90
26909;DHT22;14477;51.038;4.588;2023-04-03T10:23:57;21.60;99.90
26909;DHT22;14477;51.038;4.588;2023-04-03T10:32:22;21.70;99.90
26909;DHT22;14477;51.038;4.588;2023-04-03T10:34:58;21.70;99.90
26909;DHT22;14477;51.038;4.588;2023-04-03T10:45:56;22.40;99.90
26909;DHT22;14477;51.038;4.588;2023-04-03T10:56:51;22.90;99.80
26909;DHT22;14477;51.038;4.588;2023-04-03T10:59:26;23.00;99.90
26909;DHT22;14477;51.038;4.588;2023-04-03T11:02:48;23.00;99.90
26909;DHT22;14477;51.038;4.588;2023-04-03T11:04:51;23.00;99.90
26909;DHT22;14477;51.038;4.588;2023-04-03T11:07:22;23.00;99.90
26909;DHT22;14477;51.038;4.588;2023-04-03T11:09:55;23.00;99.80
26909;DHT22;14477;51.038;4.588;2023-04-03T11:12:33;22.80;98.80
26909;DHT22;14477;51.038;4.588;2023-04-03T11:15:02;22.80;99.60
26909;DHT22;14477;51.038;4.588;2023-04-03T11:17:54;22.80;99.90
26909;DHT22;14477;51.038;4.588;2023-04-03T11:20:30;22.90;97.10
26909;DHT22;14477;51.038;4.588;2023-04-03T11:23:12;23.00;99.90
26909;DHT22;14477;51.038;4.588;2023-04-03T11:25:44;23.10;99.90
26909;DHT22;14477;51.038;4.588;2023-04-03T11:28:13;23.30;99.90
26909;DHT22;14477;51.038;4.588;2023-04-03T11:35:44;23.50;99.90
26909;DHT22;14477;51.038;4.588;2023-04-03T11:38:21;23.50;97.90
26909;DHT22;14477;51.038;4.588;2023-04-03T11:40:48;23.50;99.10
26909;DHT22;14477;51.038;4.588;2023-04-03T11:50:57;23.60;99.90
26909;DHT22;14477;51.038;4.588;2023-04-03T11:53:27;23.60;99.90
26909;DHT22;14477;51.038;4.588;2023-04-03T11:58:34;23.60;98.40
26909;DHT22;14477;51.038;4.588;2023-04-03T12:01:06;23.60;95.10
26909;DHT22;14477;51.038;4.588;2023-04-03T12:14:02;23.30;96.10
26909;DHT22;14477;51.038;4.588;2023-04-03T12:16:47;23.20;94.30
26909;DHT22;14477;51.038;4.588;2023-04-03T12:19:33;23.30;92.90
26909;DHT22;14477;51.038;4.588;2023-04-03T12:24:29;23.10;98.40
26909;DHT22;14477;51.038;4.588;2023-04-03T12:30:18;23.20;92.10
26909;DHT22;14477;51.038;4.588;2023-04-03T12:32:54;23.20;92.10
26909;DHT22;14477;51.038;4.588;2023-04-03T12:36:03;23.20;98.50
26909;DHT22;14477;51.038;4.588;2023-04-03T12:41:56;23.40;90.30
26909;DHT22;14477;51.038;4.588;2023-04-03T12:44:55;23.40;96.70
26909;DHT22;14477;51.038;4.588;2023-04-03T12:47:35;23.50;92.50
26909;DHT22;14477;51.038;4.588;2023-04-03T12:50:13;23.50;99.10
26909;DHT22;14477;51.038;4.588;2023-04-03T12:52:57;23.60;99.10
26909;DHT22;14477;51.038;4.588;2023-04-03T12:55:25;23.50;97.10
26909;DHT22;14477;51.038;4.588;2023-04-03T12:57:52;23.40;96.90
26909;DHT22;14477;51.038;4.588;2023-04-03T13:00:35;23.20;97.00
26909;DHT22;14477;51.038;4.588;2023-04-03T13:03:05;23.10;91.60
26909;DHT22;14477;51.038;4.588;2023-04-03T13:05:32;23.00;94.80
26909;DHT22;14477;51.038;4.588;2023-04-03T13:08:04;22.90;98.30
26909;DHT22;14477;51.038;4.588;2023-04-03T13:10:31;23.00;96.90
26909;DHT22;14477;51.038;4.588;2023-04-03T13:13:07;22.80;97.90
26909;DHT22;14477;51.038;4.588;2023-04-03T13:15:43;22.90;93.50
26909;DHT22;14477;51.038;4.588;2023-04-03T13:18:34;22.80;94.80
26909;DHT22;14477;51.038;4.588;2023-04-03T13:21:07;22.70;95.30
26909;DHT22;14477;51.038;4.588;2023-04-03T13:23:36;22.70;96.60
26909;DHT22;14477;51.038;4.588;2023-04-03T13:26:05;22.50;95.90
26909;DHT22;14477;51.038;4.588;2023-04-03T13:28:33;22.50;95.70
26909;DHT22;14477;51.038;4.588;2023-04-03T13:41:52;22.10;97.10
26909;DHT22;14477;51.038;4.588;2023-04-03T13:44:27;22.20;95.00
26909;DHT22;14477;51.038;4.588;2023-04-03T13:46:56;22.10;96.60
26909;DHT22;14477;51.038;4.588;2023-04-03T13:49:31;22.10;96.70
26909;DHT22;14477;51.038;4.588;2023-04-03T13:51:58;22.00;95.90
26909;DHT22;14477;51.038;4.588;2023-04-03T13:54:37;21.90;96.30
26909;DHT22;14477;51.038;4.588;2023-04-03T13:57:10;21.80;95.20
26909;DHT22;14477;51.038;4.588;2023-04-03T13:59:37;21.70;96.90
26909;DHT22;14477;51.038;4.588;2023-04-03T14:07:15;21.50;89.10
26909;DHT22;14477;51.038;4.588;2023-04-03T14:09:44;21.50;94.90
26909;DHT22;14477;51.038;4.588;2023-04-03T14:12:26;21.40;95.80
26909;DHT22;14477;51.038;4.588;2023-04-03T14:14:52;21.30;93.30
26909;DHT22;14477;51.038;4.588;2023-04-03T14:17:24;21.10;95.60
26909;DHT22;14477;51.038;4.588;2023-04-03T14:19:52;21.00;92.70
26909;DHT22;14477;51.038;4.588;2023-04-03T14:22:25;20.80;95.90
26909;DHT22;14477;51.038;4.588;2023-04-03T14:24:52;20.70;93.30
26909;DHT22;14477;51.038;4.588;2023-04-03T14:27:29;20.50;95.70
26909;DHT22;14477;51.038;4.588;2023-04-03T14:29:57;20.40;94.10
26909;DHT22;14477;51.038;4.588;2023-04-03T14:32:25;20.40;95.70
26909;DHT22;14477;51.038;4.588;2023-04-03T14:34:52;20.30;95.50
26909;DHT22;14477;51.038;4.588;2023-04-03T14:37:21;20.20;95.50
26909;DHT22;14477;51.038;4.588;2023-04-03T14:39:48;20.00;95.20
26909;DHT22;14477;51.038;4.588;2023-04-03T14:42:18;19.90;96.00
26909;DHT22;14477;51.038;4.588;2023-04-03T14:44:44;19.90;95.40
26909;DHT22;14477;51.038;4.588;2023-04-03T14:47:19;19.90;96.30
26909;DHT22;14477;51.038;4.588;2023-04-03T14:49:47;19.90;93.40
26909;DHT22;14477;51.038;4.588;2023-04-03T14:52:39;19.90;95.30
26909;DHT22;14477;51.038;4.588;2023-04-03T14:55:05;19.80;87.80
26909;DHT22;14477;51.038;4.588;2023-04-03T14:57:31;19.80;95.60
26909;DHT22;14477;51.038;4.588;2023-04-03T14:59:58;19.70;95.20
26909;DHT22;14477;51.038;4.588;2023-04-03T15:04:58;19.60;92.70
26909;DHT22;14477;51.038;4.588;2023-04-03T15:07:25;19.50;95.50
26909;DHT22;14477;51.038;4.588;2023-04-03T15:09:52;19.50;94.90
26909;DHT22;14477;51.038;4.588;2023-04-03T15:12:18;19.40;95.30
26909;DHT22;14477;51.038;4.588;2023-04-03T15:14:43;19.30;95.50
26909;DHT22;14477;51.038;4.588;2023-04-03T15:17:17;19.20;95.60
26909;DHT22;14477;51.038;4.588;2023-04-03T15:19:43;19.20;93.60
26909;DHT22;14477;51.038;4.588;2023-04-03T15:22:14;19.00;95.00
26909;DHT22;14477;51.038;4.588;2023-04-03T15:24:41;18.90;93.80
26909;DHT22;14477;51.038;4.588;2023-04-03T15:27:06;18.80;95.20
26909;DHT22;14477;51.038;4.588;2023-04-03T15:29:32;18.70;95.60
26909;DHT22;14477;51.038;4.588;2023-04-03T15:31:58;18.60;96.10
26909;DHT22;14477;51.038;4.588;2023-04-03T15:34:24;18.50;95.20
26909;DHT22;14477;51.038;4.588;2023-04-03T15:36:50;18.40;95.40
26909;DHT22;14477;51.038;4.588;2023-04-03T15:39:17;18.30;95.90
26909;DHT22;14477;51.038;4.588;2023-04-03T15:41:44;18.30;96.00
26909;DHT22;14477;51.038;4.588;2023-04-03T15:44:10;18.20;95.70
26909;DHT22;14477;51.038;4.588;2023-04-03T15:46:37;18.10;95.70
26909;DHT22;14477;51.038;4.588;2023-04-03T15:49:04;18.00;95.90
26909;DHT22;14477;51.038;4.588;2023-04-03T15:51:31;17.80;95.80
26909;DHT22;14477;51.038;4.588;2023-04-03T15:53:57;17.70;95.90
26909;DHT22;14477;51.038;4.588;2023-04-03T15:56:22;17.50;95.90
26909;DHT22;14477;51.038;4.588;2023-04-03T15:58:48;17.40;96.00
26909;DHT22;14477;51.038;4.588;2023-04-03T16:01:14;17.20;96.00
26909;DHT22;14477;51.038;4.588;2023-04-03T16:03:41;17.00;95.90
26909;DHT22;14477;51.038;4.588;2023-04-03T16:06:12;16.80;96.20
26909;DHT22;14477;51.038;4.588;2023-04-03T16:08:38;16.70;95.90
26909;DHT22;14477;51.038;4.588;2023-04-03T16:11:04;16.50;95.80
26909;DHT22;14477;51.038;4.588;2023-04-03T16:13:29;16.40;96.00
26909;DHT22;14477;51.038;4.588;2023-04-03T16:15:56;16.30;96.50
26909;DHT22;14477;51.038;4.588;2023-04-03T16:18:22;16.20;95.70
26909;DHT22;14477;51.038;4.588;2023-04-03T16:20:47;16.00;95.60
26909;DHT22;14477;51.038;4.588;2023-04-03T16:23:13;15.90;95.40
26909;DHT22;14477;51.038;4.588;2023-04-03T16:25:39;15.80;96.30
26909;DHT22;14477;51.038;4.588;2023-04-03T16:28:05;15.70;95.90
26909;DHT22;14477;51.038;4.588;2023-04-03T16:30:32;15.60;96.20
26909;DHT22;14477;51.038;4.588;2023-04-03T16:32:58;15.50;96.60
26909;DHT22;14477;51.038;4.588;2023-04-03T16:35:24;15.50;95.80
26909;DHT22;14477;51.038;4.588;2023-04-03T16:37:49;15.40;96.30
26909;DHT22;14477;51.038;4.588;2023-04-03T16:40:15;15.30;96.10
26909;DHT22;14477;51.038;4.588;2023-04-03T16:42:41;15.30;96.40
26909;DHT22;14477;51.038;4.588;2023-04-03T16:45:07;15.20;96.90
26909;DHT22;14477;51.038;4.588;2023-04-03T16:47:33;15.10;97.00
26909;DHT22;14477;51.038;4.588;2023-04-03T16:49:59;15.10;96.60
26909;DHT22;14477;51.038;4.588;2023-04-03T16:52:25;15.10;96.90
26909;DHT22;14477;51.038;4.588;2023-04-03T16:54:50;15.10;96.90
26909;DHT22;14477;51.038;4.588;2023-04-03T16:57:21;15.00;96.60
26909;DHT22;14477;51.038;4.588;2023-04-03T16:59:47;14.90;96.40
26909;DHT22;14477;51.038;4.588;2023-04-03T17:02:12;14.80;96.20
26909;DHT22;14477;51.038;4.588;2023-04-03T17:04:38;14.80;96.60
26909;DHT22;14477;51.038;4.588;2023-04-03T17:07:04;14.70;96.60
26909;DHT22;14477;51.038;4.588;2023-04-03T17:09:32;14.60;96.50
26909;DHT22;14477;51.038;4.588;2023-04-03T17:11:58;14.60;96.20
26909;DHT22;14477;51.038;4.588;2023-04-03T17:14:24;14.50;96.30
26909;DHT22;14477;51.038;4.588;2023-04-03T17:16:50;14.40;95.70
26909;DHT22;14477;51.038;4.588;2023-04-03T17:19:16;14.30;96.00
26909;DHT22;14477;51.038;4.588;2023-04-03T17:21:43;14.20;96.00
26909;DHT22;14477;51.038;4.588;2023-04-03T17:24:10;14.20;96.00
26909;DHT22;14477;51.038;4.588;2023-04-03T17:26:40;14.10;95.90
26909;DHT22;14477;51.038;4.588;2023-04-03T17:29:06;14.00;96.30
26909;DHT22;14477;51.038;4.588;2023-04-03T17:31:32;14.00;96.60
26909;DHT22;14477;51.038;4.588;2023-04-03T17:33:58;13.90;96.10
26909;DHT22;14477;51.038;4.588;2023-04-03T17:36:28;13.80;96.20